createdAt,value
2018-09-18T00:01:26.803Z,3.60
2018-09-18T00:03:52.899Z,3.93
2018-09-18T00:06:18.989Z,5.70
2018-09-18T00:08:45.114Z,5.97
2018-09-18T00:11:11.601Z,4.37
2018-09-18T00:13:37.765Z,3.80
2018-09-18T00:16:03.858Z,6.03
2018-09-18T00:18:29.983Z,4.73
2018-09-18T00:20:56.861Z,3.70
2018-09-18T00:23:22.951Z,4.93
2018-09-18T00:25:49.069Z,5.53
2018-09-18T00:28:15.170Z,5.77
2018-09-18T00:30:41.291Z,6.80
2018-09-18T00:33:07.393Z,3.50
2018-09-18T00:35:33.453Z,4.30
2018-09-18T00:37:59.534Z,4.20
2018-09-18T00:40:25.714Z,4.20
2018-09-18T00:42:51.893Z,4.30
2018-09-18T00:45:17.996Z,7.13
2018-09-18T00:47:44.088Z,4.20
2018-09-18T00:50:10.222Z,5.07
2018-09-18T00:52:36.284Z,5.53
2018-09-18T00:55:02.421Z,4.47
2018-09-18T00:57:28.493Z,7.53
2018-09-18T00:59:54.623Z,6.90
2018-09-18T01:02:20.743Z,6.00
2018-09-18T01:04:46.882Z,5.43
2018-09-18T01:07:12.977Z,11.13
2018-09-18T01:09:39.729Z,7.07
2018-09-18T01:12:05.797Z,5.50
2018-09-18T01:14:31.895Z,5.20
2018-09-18T01:16:57.974Z,4.60
2018-09-18T01:19:24.282Z,6.57
2018-09-18T01:21:50.398Z,5.63
2018-09-18T01:24:16.522Z,5.90
2018-09-18T01:26:42.605Z,5.47
2018-09-18T01:29:08.773Z,6.43
2018-09-18T01:31:34.874Z,5.47
2018-09-18T01:34:00.974Z,5.77
2018-09-18T01:36:27.138Z,6.47
2018-09-18T01:38:53.212Z,6.57
2018-09-18T01:41:19.316Z,6.53
2018-09-18T01:43:45.461Z,5.23
2018-09-18T01:46:11.565Z,6.17
2018-09-18T01:48:37.682Z,7.43
2018-09-18T01:51:04.020Z,8.90
2018-09-18T01:53:30.087Z,6.87
2018-09-18T01:55:56.185Z,7.37
2018-09-18T01:58:22.299Z,6.13
2018-09-18T02:00:48.402Z,6.17
2018-09-18T02:03:14.488Z,6.10
2018-09-18T02:05:40.606Z,6.23
2018-09-18T02:08:06.730Z,8.40
2018-09-18T02:10:32.918Z,6.70
2018-09-18T02:12:59.038Z,7.77
2018-09-18T02:15:25.146Z,6.37
2018-09-18T02:17:51.257Z,6.80
2018-09-18T02:20:17.342Z,7.07
2018-09-18T02:22:43.426Z,7.53
2018-09-18T02:25:09.530Z,6.97
2018-09-18T02:27:35.615Z,8.63
2018-09-18T02:30:01.798Z,6.13
2018-09-18T02:32:27.859Z,12.97
2018-09-18T02:34:53.920Z,7.23
2018-09-18T02:37:20.564Z,8.67
2018-09-18T02:39:46.675Z,6.20
2018-09-18T02:42:12.768Z,6.87
2018-09-18T02:44:38.894Z,7.30
2018-09-18T02:47:04.983Z,6.00
2018-09-18T02:49:31.083Z,6.57
2018-09-18T02:51:57.214Z,6.33
2018-09-18T02:54:23.318Z,5.80
2018-09-18T02:56:49.448Z,6.67
2018-09-18T02:59:15.588Z,7.27
2018-09-18T03:01:41.701Z,6.70
2018-09-18T03:04:07.809Z,7.60
2018-09-18T03:06:33.882Z,6.70
2018-09-18T03:08:59.963Z,8.93
2018-09-18T03:11:26.217Z,6.97
2018-09-18T03:13:52.201Z,6.83
2018-09-18T03:16:18.324Z,7.27
2018-09-18T03:18:44.410Z,9.13
2018-09-18T03:21:10.486Z,9.47
2018-09-18T03:23:37.967Z,9.10
2018-09-18T03:26:04.079Z,6.77
2018-09-18T03:28:30.157Z,6.20
2018-09-18T03:30:56.254Z,5.57
2018-09-18T03:33:22.333Z,6.90
2018-09-18T03:35:48.558Z,5.20
2018-09-18T03:38:14.505Z,7.63
2018-09-18T03:40:40.575Z,7.03
2018-09-18T03:43:06.702Z,7.43
2018-09-18T03:45:32.788Z,6.70
2018-09-18T03:47:58.881Z,7.07
2018-09-18T03:50:25.059Z,7.10
2018-09-18T03:52:51.165Z,8.40
2018-09-18T03:55:17.398Z,8.10
2018-09-18T03:57:43.540Z,8.10
2018-09-18T04:00:09.614Z,7.17
2018-09-18T04:02:35.844Z,6.03
2018-09-18T04:05:01.952Z,6.80
2018-09-18T04:07:28.062Z,8.90
2018-09-18T04:09:54.142Z,8.60
2018-09-18T04:12:20.410Z,5.63
2018-09-18T04:14:46.559Z,6.70
2018-09-18T04:17:13.111Z,6.10
2018-09-18T04:19:43.013Z,9.97
2018-09-18T04:22:09.347Z,25.70
2018-09-18T04:24:35.432Z,38.10
2018-09-18T04:27:01.536Z,28.67
2018-09-18T04:29:27.641Z,32.83
2018-09-18T04:31:53.779Z,15.83
2018-09-18T04:34:19.876Z,20.40
2018-09-18T04:36:45.974Z,15.43
2018-09-18T04:39:12.106Z,15.30
2018-09-18T04:41:38.237Z,10.13
2018-09-18T04:44:04.419Z,11.07
2018-09-18T04:46:30.512Z,7.13
2018-09-18T04:48:56.614Z,6.40
2018-09-18T04:51:22.707Z,7.43
2018-09-18T04:53:48.785Z,10.03
2018-09-18T04:56:14.900Z,8.83
2018-09-18T04:58:40.994Z,9.13
2018-09-18T05:01:07.112Z,6.83
2018-09-18T05:03:33.190Z,9.67
2018-09-18T05:05:59.287Z,7.87
2018-09-18T05:08:25.386Z,8.20
2018-09-18T05:10:51.592Z,6.13
2018-09-18T05:13:17.774Z,9.60
2018-09-18T05:15:43.835Z,4.90
2018-09-18T05:18:09.940Z,6.00
2018-09-18T05:20:36.758Z,6.17
2018-09-18T05:23:03.590Z,5.50
2018-09-18T05:25:29.704Z,5.53
2018-09-18T05:27:55.883Z,6.27
2018-09-18T05:30:21.994Z,8.80
2018-09-18T05:32:48.096Z,6.47
2018-09-18T05:35:14.198Z,5.47
2018-09-18T05:37:40.862Z,6.10
2018-09-18T05:40:06.956Z,5.80
2018-09-18T05:42:33.530Z,7.03
2018-09-18T05:44:59.658Z,5.20
2018-09-18T05:47:25.740Z,6.13
2018-09-18T05:49:51.860Z,6.47
2018-09-18T05:52:17.944Z,6.27
2018-09-18T05:54:44.014Z,6.30
2018-09-18T05:57:10.106Z,6.33
2018-09-18T05:59:36.248Z,8.27
2018-09-18T06:02:02.430Z,8.37
2018-09-18T06:04:28.472Z,6.70
2018-09-18T06:06:54.588Z,7.97
2018-09-18T06:09:20.690Z,6.90
2018-09-18T06:11:46.796Z,5.50
2018-09-18T06:14:12.898Z,5.90
2018-09-18T06:16:39.012Z,7.40
2018-09-18T06:19:05.176Z,5.73
2018-09-18T06:21:31.268Z,6.30
2018-09-18T06:23:57.386Z,6.00
2018-09-18T06:26:23.764Z,9.33
2018-09-18T06:28:49.720Z,6.93
2018-09-18T06:31:15.829Z,6.60
2018-09-18T06:33:41.899Z,6.27
2018-09-18T06:36:08.030Z,5.20
2018-09-18T06:38:34.110Z,6.53
2018-09-18T06:41:00.380Z,6.73
2018-09-18T06:43:26.486Z,5.47
2018-09-18T06:45:52.758Z,5.20
2018-09-18T06:48:18.849Z,11.20
2018-09-18T06:50:44.959Z,5.77
2018-09-18T06:53:11.071Z,7.67
2018-09-18T06:55:37.138Z,8.17
2018-09-18T06:58:03.239Z,8.47
2018-09-18T07:00:29.354Z,6.77
2018-09-18T07:02:55.518Z,5.80
2018-09-18T07:05:21.690Z,8.20
2018-09-18T07:07:47.790Z,7.03
2018-09-18T07:10:13.866Z,5.47
2018-09-18T07:12:39.974Z,6.70
2018-09-18T07:15:06.091Z,6.70
2018-09-18T07:17:32.731Z,6.33
2018-09-18T07:19:58.812Z,5.97
2018-09-18T07:22:25.784Z,7.80
2018-09-18T07:24:51.943Z,13.47
2018-09-18T07:27:18.086Z,7.30
2018-09-18T07:29:44.193Z,6.73
2018-09-18T07:32:10.323Z,8.13
2018-09-18T07:34:36.416Z,6.23
2018-09-18T07:37:02.548Z,6.37
2018-09-18T07:39:28.650Z,7.07
2018-09-18T07:41:54.742Z,6.57
2018-09-18T07:44:20.839Z,6.57
2018-09-18T07:46:47.687Z,5.80
2018-09-18T07:49:13.768Z,7.27
2018-09-18T07:51:40.228Z,7.90
2018-09-18T07:54:06.323Z,5.50
2018-09-18T07:56:32.397Z,10.47
2018-09-18T07:58:58.549Z,6.47
2018-09-18T08:01:24.644Z,7.17
2018-09-18T08:03:50.762Z,5.47
2018-09-18T08:06:17.661Z,7.63
2018-09-18T08:08:43.766Z,5.93
2018-09-18T08:11:10.098Z,6.20
2018-09-18T08:13:36.213Z,6.30
2018-09-18T08:16:02.328Z,9.90
2018-09-18T08:18:28.431Z,5.77
2018-09-18T08:20:54.562Z,5.47
2018-09-18T08:23:20.722Z,5.53
2018-09-18T08:25:46.889Z,9.33
2018-09-18T08:28:12.982Z,5.97
2018-09-18T08:30:39.105Z,5.47
2018-09-18T08:33:05.309Z,6.03
2018-09-18T08:35:31.385Z,5.53
2018-09-18T08:37:57.512Z,5.57
2018-09-18T08:40:23.644Z,5.00
2018-09-18T08:42:49.748Z,5.50
2018-09-18T08:45:15.860Z,5.50
2018-09-18T08:47:41.977Z,5.43
2018-09-18T08:50:08.080Z,6.90
2018-09-18T08:52:34.269Z,4.83
2018-09-18T08:55:00.646Z,5.07
2018-09-18T08:57:26.833Z,5.50
2018-09-18T08:59:53.053Z,5.73
2018-09-18T09:02:19.185Z,4.67
2018-09-18T09:04:45.261Z,5.20
2018-09-18T09:07:11.353Z,5.73
2018-09-18T09:09:38.265Z,4.50
2018-09-18T09:12:05.524Z,4.23
2018-09-18T09:14:39.952Z,4.80
2018-09-18T09:17:07.017Z,4.20
2018-09-18T09:19:36.750Z,7.97
2018-09-18T09:22:02.948Z,5.10
2018-09-18T09:24:28.941Z,4.33
2018-09-18T09:26:55.074Z,4.20
2018-09-18T09:29:21.160Z,5.70
2018-09-18T09:31:47.242Z,5.10
2018-09-18T09:34:13.368Z,4.80
2018-09-18T09:36:45.933Z,5.40
2018-09-18T09:39:12.021Z,4.30
2018-09-18T09:41:38.131Z,4.20
2018-09-18T09:44:04.230Z,4.30
2018-09-18T09:46:30.342Z,5.50
2018-09-18T09:48:56.442Z,3.90
2018-09-18T09:51:22.880Z,4.80
2018-09-18T09:53:48.918Z,5.00
2018-09-18T09:56:15.066Z,3.70
2018-09-18T09:58:41.147Z,3.97
2018-09-18T10:01:07.242Z,4.40
2018-09-18T10:03:33.379Z,4.33
2018-09-18T10:05:59.492Z,4.10
2018-09-18T10:08:25.554Z,3.50
2018-09-18T10:10:51.788Z,3.60
2018-09-18T10:13:18.668Z,3.33
2018-09-18T10:15:46.923Z,4.80
2018-09-18T10:18:13.090Z,4.30
2018-09-18T10:20:39.167Z,4.83
2018-09-18T10:23:05.271Z,3.60
2018-09-18T10:25:31.359Z,4.70
2018-09-18T10:27:57.497Z,3.47
2018-09-18T10:30:23.585Z,4.93
2018-09-18T10:32:49.785Z,4.70
2018-09-18T10:35:15.782Z,5.03
2018-09-18T10:37:41.838Z,4.00
2018-09-18T10:40:08.000Z,4.57
2018-09-18T10:42:34.137Z,4.83
2018-09-18T10:45:01.241Z,3.97
2018-09-18T10:47:27.318Z,4.43
2018-09-18T10:49:53.435Z,4.97
2018-09-18T10:52:19.552Z,6.17
2018-09-18T10:54:45.624Z,4.33
2018-09-18T10:57:11.675Z,8.70
2018-09-18T10:59:37.747Z,4.37
2018-09-18T11:02:03.875Z,4.10
2018-09-18T11:04:30.081Z,6.43
2018-09-18T11:06:57.204Z,4.47
2018-09-18T11:09:23.278Z,3.67
2018-09-18T11:11:49.592Z,4.30
2018-09-18T11:14:15.627Z,4.53
2018-09-18T11:16:41.664Z,4.23
2018-09-18T11:19:07.774Z,4.17
2018-09-18T11:21:33.993Z,4.13
2018-09-18T11:24:00.262Z,3.77
2018-09-18T11:26:26.519Z,3.60
2018-09-18T11:28:53.599Z,3.57
2018-09-18T11:31:19.742Z,4.37
2018-09-18T11:33:45.811Z,4.40
2018-09-18T11:36:11.917Z,3.70
2018-09-18T11:38:38.681Z,3.70
2018-09-18T11:41:04.764Z,3.60
2018-09-18T11:43:30.825Z,3.57
2018-09-18T11:45:57.124Z,3.37
2018-09-18T11:48:23.975Z,3.63
2018-09-18T11:50:50.055Z,3.33
2018-09-18T11:53:16.117Z,4.00
2018-09-18T11:55:42.213Z,4.40
2018-09-18T11:58:08.317Z,4.33
2018-09-18T12:00:34.413Z,3.17
2018-09-18T12:03:00.547Z,3.33
2018-09-18T12:05:26.605Z,2.93
2018-09-18T12:07:52.675Z,3.93
2018-09-18T12:10:18.759Z,3.50
2018-09-18T12:12:44.821Z,3.30
2018-09-18T12:15:11.617Z,3.20
2018-09-18T12:17:37.659Z,3.43
2018-09-18T12:20:03.763Z,5.50
2018-09-18T12:22:30.119Z,3.30
2018-09-18T12:24:56.153Z,2.97
2018-09-18T12:27:22.235Z,3.37
2018-09-18T12:29:48.307Z,2.90
2018-09-18T12:32:14.388Z,3.40
2018-09-18T12:34:40.505Z,3.03
2018-09-18T12:37:06.594Z,4.33
2018-09-18T12:39:32.682Z,2.90
2018-09-18T12:41:58.905Z,2.97
2018-09-18T12:44:24.887Z,3.77
2018-09-18T12:46:51.013Z,3.10
2018-09-18T12:49:17.200Z,3.70
2018-09-18T12:51:43.242Z,2.90
2018-09-18T12:54:10.144Z,3.53
2018-09-18T12:56:36.262Z,3.53
2018-09-18T12:59:02.440Z,3.10
2018-09-18T13:01:28.649Z,2.60
2018-09-18T13:03:54.754Z,2.97
2018-09-18T13:06:21.163Z,2.53
2018-09-18T13:08:47.104Z,3.47
2018-09-18T13:11:13.192Z,2.60
2018-09-18T13:13:39.357Z,4.97
2018-09-18T13:16:05.454Z,2.63
2018-09-18T13:18:31.756Z,3.77
2018-09-18T13:20:57.906Z,3.33
2018-09-18T13:23:24.004Z,2.80
2018-09-18T13:25:51.074Z,3.00
2018-09-18T13:28:17.168Z,2.70
2018-09-18T13:30:43.273Z,3.43
2018-09-18T13:33:09.351Z,2.70
2018-09-18T13:35:35.475Z,3.80
2018-09-18T13:38:01.552Z,2.80
2018-09-18T13:40:27.716Z,3.40
2018-09-18T13:42:53.860Z,2.90
2018-09-18T13:45:20.043Z,2.90
2018-09-18T13:47:46.122Z,3.30
2018-09-18T13:50:13.801Z,3.17
2018-09-18T13:52:40.663Z,4.23
2018-09-18T13:55:06.780Z,2.10
2018-09-18T13:57:32.931Z,2.67
2018-09-18T13:59:59.097Z,3.00
2018-09-18T14:02:25.213Z,3.27
2018-09-18T14:04:51.241Z,3.00
2018-09-18T14:07:17.379Z,2.93
2018-09-18T14:09:43.496Z,3.30
2018-09-18T14:12:09.634Z,2.90
2018-09-18T14:14:35.721Z,2.93
2018-09-18T14:17:01.812Z,2.87
2018-09-18T14:19:27.917Z,2.63
2018-09-18T14:21:54.018Z,2.60
2018-09-18T14:24:20.117Z,2.73
2018-09-18T14:26:46.323Z,3.40
2018-09-18T14:29:12.635Z,3.60
2018-09-18T14:31:38.735Z,2.30
2018-09-18T14:34:04.878Z,2.70
2018-09-18T14:36:30.995Z,4.63
2018-09-18T14:38:57.340Z,2.50
2018-09-18T14:41:23.442Z,3.10
2018-09-18T14:43:50.537Z,2.83
2018-09-18T14:46:16.617Z,3.50
2018-09-18T14:48:42.702Z,2.67
2018-09-18T14:51:08.862Z,4.47
2018-09-18T14:53:34.961Z,3.03
2018-09-18T14:56:01.115Z,2.53
2018-09-18T14:58:27.227Z,2.97
2018-09-18T15:00:53.343Z,2.97
2018-09-18T15:03:19.440Z,3.33
2018-09-18T15:05:45.692Z,3.70
2018-09-18T15:08:12.118Z,3.13
2018-09-18T15:10:38.237Z,2.80
2018-09-18T15:13:04.828Z,2.80
2018-09-18T15:15:30.976Z,2.97
2018-09-18T15:17:57.030Z,3.80
2018-09-18T15:20:23.158Z,2.80
2018-09-18T15:22:49.271Z,4.30
2018-09-18T15:25:15.391Z,3.67
2018-09-18T15:27:42.749Z,3.07
2018-09-18T15:30:09.485Z,3.03
2018-09-18T15:32:35.647Z,8.60
2018-09-18T15:35:01.801Z,5.47
2018-09-18T15:37:28.037Z,3.30
2018-09-18T15:39:54.195Z,2.90
2018-09-18T15:42:20.373Z,3.47
2018-09-18T15:44:46.491Z,3.50
2018-09-18T15:47:12.603Z,4.53
2018-09-18T15:49:38.709Z,3.47
2018-09-18T15:52:04.917Z,4.90
2018-09-18T15:54:31.006Z,4.17
2018-09-18T15:56:57.641Z,6.00
2018-09-18T15:59:23.747Z,3.37
2018-09-18T16:01:49.850Z,4.47
2018-09-18T16:04:15.962Z,5.50
2018-09-18T16:06:42.068Z,6.03
2018-09-18T16:09:09.489Z,3.00
2018-09-18T16:11:35.648Z,4.63
2018-09-18T16:14:02.388Z,6.03
2018-09-18T16:16:28.516Z,4.67
2018-09-18T16:18:54.550Z,3.50
2018-09-18T16:21:20.649Z,5.37
2018-09-18T16:23:46.751Z,6.80
2018-09-18T16:26:12.890Z,3.93
2018-09-18T16:28:39.537Z,3.83
2018-09-18T16:31:06.163Z,4.80
2018-09-18T16:33:33.013Z,3.53
2018-09-18T16:35:59.147Z,3.50
2018-09-18T16:38:25.238Z,3.27
2018-09-18T16:40:51.371Z,6.93
2018-09-18T16:43:17.488Z,3.10
2018-09-18T16:45:43.736Z,3.70
2018-09-18T16:48:09.932Z,5.57
2018-09-18T16:50:36.006Z,3.27
2018-09-18T16:53:02.107Z,3.30
2018-09-18T16:55:28.309Z,4.93
2018-09-18T16:57:54.461Z,3.57
2018-09-18T17:00:20.705Z,4.00
2018-09-18T17:02:46.808Z,3.43
2018-09-18T17:05:12.950Z,5.40
2018-09-18T17:07:39.037Z,6.67
2018-09-18T17:10:05.231Z,7.53
2018-09-18T17:12:31.388Z,7.93
2018-09-18T17:14:58.046Z,7.60
2018-09-18T17:17:24.165Z,8.73
2018-09-18T17:19:50.771Z,4.90
2018-09-18T17:22:16.965Z,6.07
2018-09-18T17:24:43.609Z,7.00
2018-09-18T17:27:09.926Z,9.37
2018-09-18T17:29:36.020Z,4.83
2018-09-18T17:32:02.136Z,5.00
2018-09-18T17:34:28.313Z,3.70
2018-09-18T17:36:55.292Z,3.83
2018-09-18T17:39:21.382Z,4.13
2018-09-18T17:41:47.511Z,4.50
2018-09-18T17:44:14.315Z,7.23
2018-09-18T17:46:40.455Z,4.17
2018-09-18T17:49:06.533Z,4.20
2018-09-18T17:51:32.623Z,9.30
2018-09-18T17:53:58.811Z,6.30
2018-09-18T17:56:24.909Z,5.23
2018-09-18T17:58:51.575Z,6.47
2018-09-18T18:01:19.175Z,7.83
2018-09-18T18:03:45.302Z,5.73
2018-09-18T18:06:11.554Z,6.00
2018-09-18T18:08:37.716Z,10.03
2018-09-18T18:11:04.089Z,8.33
2018-09-18T18:13:30.284Z,11.17
2018-09-18T18:15:56.390Z,6.40
2018-09-18T18:18:22.720Z,6.47
2018-09-18T18:20:48.948Z,4.73
2018-09-18T18:23:15.155Z,6.00
2018-09-18T18:25:41.279Z,5.00
2018-09-18T18:28:07.476Z,6.73
2018-09-18T18:30:33.580Z,7.10
2018-09-18T18:32:59.814Z,5.47
2018-09-18T18:35:26.448Z,5.90
2018-09-18T18:37:52.555Z,6.07
2018-09-18T18:40:18.671Z,9.67
2018-09-18T18:42:45.482Z,6.93
2018-09-18T18:45:11.561Z,6.87
2018-09-18T18:47:37.696Z,6.40
2018-09-18T18:50:03.935Z,5.20
2018-09-18T18:52:32.271Z,7.10
2018-09-18T18:54:58.384Z,8.97
2018-09-18T18:57:24.508Z,8.63
2018-09-18T18:59:50.612Z,9.50
2018-09-18T19:02:17.785Z,10.70
2018-09-18T19:04:44.016Z,8.73
2018-09-18T19:07:10.186Z,7.83
2018-09-18T19:09:37.789Z,9.93
2018-09-18T19:12:04.042Z,6.70
2018-09-18T19:14:30.120Z,7.43
2018-09-18T19:16:56.235Z,8.93
2018-09-18T19:19:22.342Z,6.70
2018-09-18T19:21:48.446Z,8.40
2018-09-18T19:24:14.590Z,10.90
2018-09-18T19:26:40.750Z,7.87
2018-09-18T19:29:06.864Z,7.17
2018-09-18T19:31:33.004Z,9.60
2018-09-18T19:33:59.115Z,8.83
2018-09-18T19:36:26.112Z,11.60
2018-09-18T19:38:52.215Z,8.47
2018-09-18T19:41:18.326Z,5.30
2018-09-18T19:43:44.698Z,10.00
2018-09-18T19:46:10.783Z,8.57
2018-09-18T19:48:36.895Z,7.73
2018-09-18T19:51:03.172Z,7.83
2018-09-18T19:53:29.248Z,9.90
2018-09-18T19:55:55.348Z,5.93
2018-09-18T19:58:21.650Z,6.03
2018-09-18T20:00:47.808Z,7.53
2018-09-18T20:03:13.949Z,7.43
2018-09-18T20:05:40.079Z,4.87
2018-09-18T20:08:06.169Z,7.53
2018-09-18T20:10:32.277Z,6.43
2018-09-18T20:12:58.451Z,5.67
2018-09-18T20:15:25.138Z,7.43
2018-09-18T20:17:51.350Z,5.47
2018-09-18T20:20:17.638Z,6.63
2018-09-18T20:22:45.846Z,6.37
2018-09-18T20:25:12.135Z,8.60
2018-09-18T20:27:39.036Z,5.50
2018-09-18T20:30:06.354Z,6.33
2018-09-18T20:32:32.508Z,6.07
2018-09-18T20:34:59.758Z,6.83
2018-09-18T20:37:26.882Z,7.87
2018-09-18T20:39:54.170Z,9.17
2018-09-18T20:42:21.631Z,7.17
2018-09-18T20:44:48.077Z,8.97
2018-09-18T20:47:14.493Z,6.30
2018-09-18T20:49:41.013Z,5.30
2018-09-18T20:52:07.203Z,5.53
2018-09-18T20:54:33.302Z,6.47
2018-09-18T20:56:59.970Z,5.63
2018-09-18T20:59:26.104Z,4.83
2018-09-18T21:01:52.240Z,10.33
2018-09-18T21:04:18.312Z,5.23
2018-09-18T21:06:44.437Z,5.30
2018-09-18T21:09:10.534Z,13.23
2018-09-18T21:11:36.636Z,5.23
2018-09-18T21:14:02.697Z,6.43
2018-09-18T21:16:28.827Z,5.90
2018-09-18T21:18:54.907Z,6.27
2018-09-18T21:21:21.037Z,5.93
2018-09-18T21:23:47.176Z,6.73
2018-09-18T21:26:13.319Z,6.20
2018-09-18T21:28:39.399Z,4.90
2018-09-18T21:31:05.505Z,5.23
2018-09-18T21:33:31.620Z,6.73
2018-09-18T21:35:57.954Z,5.60
2018-09-18T21:38:24.040Z,4.20
2018-09-18T21:40:50.137Z,6.23
2018-09-18T21:43:16.236Z,7.67
2018-09-18T21:45:42.321Z,9.77
2018-09-18T21:48:08.404Z,6.20
2018-09-18T21:50:34.493Z,5.33
2018-09-18T21:53:00.589Z,4.30
2018-09-18T21:55:27.200Z,6.23
2018-09-18T21:57:54.103Z,6.17
2018-09-18T22:00:20.178Z,4.77
2018-09-18T22:02:46.258Z,4.53
2018-09-18T22:05:12.365Z,6.23
2018-09-18T22:07:38.487Z,6.93
2018-09-18T22:10:04.555Z,5.80
2018-09-18T22:12:30.753Z,5.70
2018-09-18T22:14:56.750Z,7.00
2018-09-18T22:17:22.843Z,5.03
2018-09-18T22:19:48.916Z,4.70
2018-09-18T22:22:15.048Z,5.40
2018-09-18T22:24:41.117Z,5.03
2018-09-18T22:27:07.187Z,4.90
2018-09-18T22:29:33.267Z,7.60
2018-09-18T22:31:59.345Z,4.03
2018-09-18T22:34:25.417Z,5.87
2018-09-18T22:36:51.533Z,7.23
2018-09-18T22:39:17.603Z,7.63
2018-09-18T22:41:43.734Z,4.60
2018-09-18T22:44:09.845Z,4.77
2018-09-18T22:46:35.972Z,6.00
2018-09-18T22:49:02.076Z,6.83
2018-09-18T22:51:28.176Z,5.17
2018-09-18T22:53:54.311Z,6.57
2018-09-18T22:56:20.457Z,4.23
2018-09-18T22:58:46.577Z,4.03
2018-09-18T23:01:12.688Z,5.60
2018-09-18T23:03:38.777Z,5.10
2018-09-18T23:06:05.037Z,4.63
2018-09-18T23:08:31.140Z,4.97
2018-09-18T23:10:57.210Z,4.00
2018-09-18T23:13:23.298Z,6.20
2018-09-18T23:15:49.371Z,4.07
2018-09-18T23:18:15.490Z,3.40
2018-09-18T23:20:41.576Z,4.07
2018-09-18T23:23:07.711Z,4.37
2018-09-18T23:25:33.866Z,3.93
2018-09-18T23:27:59.909Z,3.20
2018-09-18T23:30:25.983Z,3.73
2018-09-18T23:32:52.106Z,3.80
2018-09-18T23:35:18.166Z,4.97
2018-09-18T23:37:44.282Z,5.50
2018-09-18T23:40:11.330Z,5.50
2018-09-18T23:42:37.399Z,3.70
2018-09-18T23:45:03.503Z,3.90
2018-09-18T23:47:29.627Z,3.93
2018-09-18T23:49:55.710Z,4.33
2018-09-18T23:52:21.792Z,4.37
2018-09-18T23:54:47.884Z,3.77
2018-09-18T23:57:13.996Z,3.90
2018-09-18T23:59:40.084Z,3.93
